Time;durP1;ratioP1;P1;durP2;ratioP2;P2;SDS_P1;SDS_P2;PMS_P1;PMS_P2;Temp;Humidity;BMP_temperature;BMP_pressure;BME280_temperature;BME280_humidity;BME280_pressure;Samples;Min_cycle;Max_cycle;Signal;HPM_P1;HPM_P2
2021/09/30 00:00:00;;;;;;;26.02;23.23;;;;;;;13.56;77.00;100820.09;4878762;28;100920;-81
2021/09/30 00:02:25;;;;;;;27.48;23.63;;;;;;;13.57;77.26;100818.31;4880012;28;101733;-81
2021/09/30 00:04:51;;;;;;;29.85;23.70;;;;;;;13.57;76.68;100819.16;4860484;28;96903;-81
2021/09/30 00:07:17;;;;;;;26.35;22.08;;;;;;;13.55;77.10;100823.63;4861657;28;97261;-81
2021/09/30 00:09:45;;;;;;;28.25;23.63;;;;;;;13.54;76.85;100828.97;4879120;28;97661;-81
2021/09/30 00:12:18;;;;;;;26.88;22.05;;;;;;;13.48;76.59;100837.97;4864300;28;100311;-81
2021/09/30 00:15:01;;;;;;;28.52;22.50;;;;;;;13.51;77.37;100840.50;4883910;28;97085;-82
2021/09/30 00:41:57;;;;;;;17.58;15.50;;;;;;;13.27;75.36;100858.09;4884690;28;98266;-81
2021/09/30 00:52:39;;;;;;;15.68;12.60;;;;;;;13.17;75.88;100871.63;4863486;28;100181;-82
2021/09/30 02:23:56;;;;;;;7.78;7.15;;;;;;;13.39;73.60;100945.59;4903740;28;98558;-81
2021/09/30 02:59:26;;;;;;;6.93;6.32;;;;;;;13.32;70.67;101002.94;4883521;28;97010;-81
2021/09/30 03:01:52;;;;;;;7.47;6.20;;;;;;;13.32;71.18;101001.19;4862622;28;96963;-82
2021/09/30 03:04:20;;;;;;;7.50;5.53;;;;;;;13.27;71.27;100997.84;4886804;28;97728;-83
2021/09/30 03:06:46;;;;;;;7.07;6.47;;;;;;;13.26;71.13;101001.38;4879676;28;100809;-82
2021/09/30 03:09:13;;;;;;;6.60;6.00;;;;;;;13.26;71.29;101001.38;4865034;28;97081;-83
2021/09/30 03:11:41;;;;;;;5.90;5.47;;;;;;;13.25;71.26;101012.84;4868385;28;97019;-85
2021/09/30 03:14:11;;;;;;;6.28;5.68;;;;;;;13.23;71.37;101022.53;4867892;28;100418;-82
2021/09/30 03:24:48;;;;;;;6.30;5.90;;;;;;;13.15;71.16;101024.59;4870945;28;101909;-85
2021/09/30 03:27:17;;;;;;;6.85;6.18;;;;;;;13.17;71.44;101028.00;4879399;28;101218;-81
2021/09/30 03:29:45;;;;;;;5.97;5.40;;;;;;;13.13;71.55;101032.53;4865180;28;96711;-81
2021/09/30 03:32:12;;;;;;;6.20;5.65;;;;;;;13.16;71.29;101028.94;4877509;28;97191;-83
2021/09/30 03:34:56;;;;;;;6.50;6.10;;;;;;;13.16;71.12;101039.47;4880391;28;96577;-83
2021/09/30 03:37:24;;;;;;;5.78;5.47;;;;;;;13.14;70.76;101042.16;4871543;28;101514;-83
2021/09/30 03:39:49;;;;;;;5.80;5.40;;;;;;;13.11;71.07;101046.66;4867157;28;97039;-82
2021/09/30 03:42:16;;;;;;;6.55;6.13;;;;;;;13.10;71.47;101040.53;4885992;28;97029;-82
2021/09/30 03:44:46;;;;;;;8.73;5.88;;;;;;;13.13;71.66;101052.75;4895728;28;100132;-83
2021/09/30 03:47:14;;;;;;;7.30;5.88;;;;;;;13.18;70.94;101056.13;4862540;28;100366;-81
2021/09/30 03:49:52;;;;;;;6.13;5.70;;;;;;;13.12;70.64;101066.88;4877336;28;97261;-82
2021/09/30 04:00:05;;;;;;;7.00;6.18;;;;;;;13.06;70.90;101073.19;4877205;28;96719;-82
2021/09/30 04:02:45;;;;;;;;;;;;;;;13.10;71.52;101072.19;4880228;28;97750;-82
2021/09/30 04:05:12;;;;;;;5.68;5.28;;;;;;;13.11;71.26;101079.16;4876096;28;101979;-82
2021/09/30 04:07:37;;;;;;;5.68;5.28;;;;;;;13.18;70.66;101081.59;4862600;28;101476;-83
2021/09/30 04:10:04;;;;;;;6.28;5.88;;;;;;;13.16;70.62;101084.28;4870618;28;96810;-81
2021/09/30 04:12:30;;;;;;;6.72;5.60;;;;;;;13.16;70.51;101083.44;4862741;28;97171;-81
2021/09/30 04:14:55;;;;;;;9.98;6.00;;;;;;;13.10;69.92;101085.34;4895085;28;98271;-82
2021/09/30 04:17:21;;;;;;;9.38;6.40;;;;;;;13.09;70.00;101082.78;4896071;28;101742;-81
2021/09/30 04:19:46;;;;;;;6.35;5.88;;;;;;;13.14;69.20;101094.00;4869509;28;96847;-81
2021/09/30 04:22:14;;;;;;;6.70;6.10;;;;;;;13.14;68.78;101088.75;4876586;28;96900;-82
2021/09/30 04:24:41;;;;;;;6.78;6.28;;;;;;;13.10;68.70;101090.63;4863394;28;100244;-83
2021/09/30 04:27:08;;;;;;;7.22;6.53;;;;;;;13.08;68.93;101089.81;4877371;28;101720;-81
2021/09/30 04:29:33;;;;;;;6.50;5.93;;;;;;;13.05;68.92;101089.91;4895059;28;97131;-81
2021/09/30 04:31:59;;;;;;;7.13;5.10;;;;;;;13.07;68.24;101087.22;4889918;28;97022;-81
2021/09/30 04:34:25;;;;;;;6.15;5.25;;;;;;;13.05;67.72;101095.19;4873092;28;100747;-82
2021/09/30 04:36:51;;;;;;;6.50;6.10;;;;;;;13.05;67.91;101100.44;4876021;28;101325;-82
2021/09/30 04:39:17;;;;;;;7.25;6.75;;;;;;;13.04;68.10;101095.25;4878198;28;96984;-82
2021/09/30 04:41:45;;;;;;;6.50;6.00;;;;;;;13.04;68.33;101109.28;4863467;28;97075;-82
2021/09/30 04:44:12;;;;;;;6.90;6.32;;;;;;;13.05;68.38;101108.34;4880369;28;99251;-81
2021/09/30 04:46:38;;;;;;;6.53;5.93;;;;;;;13.04;68.04;101122.44;4877583;28;101154;-80
2021/09/30 04:49:23;;;;;;;6.95;6.40;;;;;;;12.99;68.11;101121.72;4869998;28;96736;-79
2021/09/30 04:51:49;;;;;;;7.13;6.50;;;;;;;12.97;67.56;101118.25;4884526;28;96883;-81
2021/09/30 04:54:18;;;;;;;6.75;6.35;;;;;;;12.95;67.88;101124.53;4880301;28;101753;-81
2021/09/30 04:56:43;;;;;;;6.80;6.10;;;;;;;12.91;67.79;101135.16;4882594;28;101266;-84
2021/09/30 04:59:19;;;;;;;6.63;6.13;;;;;;;12.90;68.01;101137.81;4882325;28;96689;-82
2021/09/30 05:02:00;;;;;;;6.53;5.95;;;;;;;12.86;67.91;101141.47;4879938;28;96872;-81
2021/09/30 05:04:26;;;;;;;5.72;5.35;;;;;;;12.83;67.58;101147.69;4873235;28;99656;-81
2021/09/30 05:06:52;;;;;;;7.32;5.38;;;;;;;12.80;68.04;101139.00;4859629;28;100744;-82
2021/09/30 05:09:19;;;;;;;5.38;4.90;;;;;;;12.75;67.57;101140.94;4879730;28;96675;-81
2021/09/30 05:11:51;;;;;;;9.95;5.40;;;;;;;12.76;67.58;101140.00;4877073;28;96802;-82
2021/09/30 05:14:17;;;;;;;6.28;5.70;;;;;;;12.75;67.61;101140.94;4864837;28;99958;-81
2021/09/30 05:16:43;;;;;;;8.05;5.43;;;;;;;12.73;67.34;101155.91;4860573;28;100598;-83
2021/09/30 05:19:27;;;;;;;6.25;5.75;;;;;;;12.69;67.21;101156.00;4872300;28;97275;-82
2021/09/30 05:21:53;;;;;;;8.73;5.50;;;;;;;12.62;67.92;101159.75;4879535;28;96986;-80
2021/09/30 05:24:19;;;;;;;6.10;5.53;;;;;;;12.59;67.68;101164.22;4878644;28;101332;-81
2021/09/30 05:26:45;;;;;;;8.35;5.85;;;;;;;12.53;68.19;101175.78;4879585;28;100492;-82
2021/09/30 05:29:11;;;;;;;7.72;6.90;;;;;;;12.48;67.98;101174.19;4875552;28;96809;-83
2021/09/30 05:31:49;;;;;;;8.55;6.18;;;;;;;12.47;67.98;101175.97;4877565;28;96827;-83
2021/09/30 05:34:43;;;;;;;;;;;;;;;12.50;68.11;101170.59;4880594;28;96949;-83
2021/09/30 05:37:09;;;;;;;7.55;6.00;;;;;;;12.59;68.44;101180.00;4879303;28;101295;-81
2021/09/30 05:39:34;;;;;;;7.03;5.43;;;;;;;12.64;67.83;101173.72;4866969;28;97338;-81
2021/09/30 05:42:00;;;;;;;7.43;5.80;;;;;;;12.68;67.79;101187.66;4881757;28;96971;-81
2021/09/30 05:44:28;;;;;;;7.60;6.00;;;;;;;12.75;67.62;101185.72;4880831;28;99538;-85
2021/09/30 05:46:56;;;;;;;6.53;5.20;;;;;;;12.80;67.76;101187.31;4881867;28;97757;-82
2021/09/30 05:49:23;;;;;;;5.70;5.00;;;;;;;12.86;67.13;101184.50;4864898;28;96973;-85
2021/09/30 05:52:01;;;;;;;13.38;5.30;;;;;;;13.03;67.51;101194.53;4865752;28;96747;-80
2021/09/30 05:54:42;;;;;;;6.50;5.93;;;;;;;13.88;65.07;101187.44;4885169;28;100547;-79
2021/09/30 05:57:17;;;;;;;9.55;5.53;;;;;;;13.89;64.24;101194.44;4888688;28;101746;-84
2021/09/30 05:59:43;;;;;;;6.35;5.75;;;;;;;14.67;61.77;101189.03;4873495;28;97257;-82
2021/09/30 06:03:48;;;;;;;8.45;6.07;;;;;;;14.58;61.64;101199.09;4873366;28;97021;-80
2021/09/30 06:07:06;;;;;;;7.85;5.90;;;;;;;14.24;63.39;101185.28;4893510;28;98625;-81
2021/09/30 06:10:54;;;;;;;7.47;5.53;;;;;;;15.08;61.41;101194.53;4878604;28;97117;-77
2021/09/30 06:13:27;;;;;;;8.52;6.45;;;;;;;15.68;59.09;101194.81;4880481;28;97200;-77
2021/09/30 06:15:53;;;;;;;11.07;6.03;;;;;;;15.92;58.98;101200.88;4874140;28;101767;-77
2021/09/30 06:18:19;;;;;;;7.25;5.97;;;;;;;16.22;57.39;101200.47;4884046;28;97873;-77
2021/09/30 06:20:50;;;;;;;9.97;5.60;;;;;;;16.25;57.81;101197.69;4877633;28;96915;-76
2021/09/30 06:23:21;;;;;;;7.75;7.05;;;;;;;16.36;57.19;101206.03;4864844;28;97065;-77
2021/09/30 06:25:47;;;;;;;10.57;6.80;;;;;;;16.21;57.05;101206.72;4875175;28;101772;-79
2021/09/30 06:28:12;;;;;;;7.80;5.72;;;;;;;16.73;55.62;101199.94;4896233;28;101482;-77
2021/09/30 06:30:39;;;;;;;6.25;5.60;;;;;;;17.23;55.39;101197.69;4861936;28;96739;-77
2021/09/30 06:33:31;;;;;;;6.38;5.07;;;;;;;16.63;56.14;101209.22;4877536;28;97236;-78
2021/09/30 06:36:16;;;;;;;7.50;5.45;;;;;;;16.25;56.57;101211.78;4879553;28;100050;-79
2021/09/30 06:38:41;;;;;;;6.55;4.80;;;;;;;17.26;53.98;101211.66;4877296;28;101615;-82
2021/09/30 06:41:09;;;;;;;6.32;5.82;;;;;;;16.89;54.05;101212.50;4861496;28;96819;-80
2021/09/30 06:43:35;;;;;;;15.13;5.88;;;;;;;16.32;55.66;101219.47;4853409;28;98003;-82
2021/09/30 06:46:26;;;;;;;;;;;;;;;15.87;56.54;101218.72;4869926;28;97470;-84
2021/09/30 06:48:58;;;;;;;7.28;6.60;;;;;;;16.02;56.76;101225.16;4879731;28;101203;-86
2021/09/30 06:51:33;;;;;;;8.32;6.35;;;;;;;17.08;54.10;101233.75;4887148;28;96738;-84
2021/09/30 06:54:01;;;;;;;8.10;5.72;;;;;;;17.97;52.41;101232.09;4873135;28;96822;-85
2021/09/30 06:56:49;;;;;;;8.18;5.03;;;;;;;18.90;49.46;101227.22;4894565;28;99302;-85
2021/09/30 06:59:35;;;;;;;7.68;5.30;;;;;;;19.81;48.14;101219.47;4879054;28;97066;-85
2021/09/30 07:02:22;;;;;;;6.85;5.18;;;;;;;21.05;44.54;101214.59;4892922;28;96868;-84
2021/09/30 07:05:17;;;;;;;4.90;4.50;;;;;;;21.78;42.30;101219.63;4831912;28;97427;-82
2021/09/30 07:08:02;;;;;;;5.47;4.72;;;;;;;23.38;40.02;101224.56;4866447;28;101870;-82
2021/09/30 07:10:28;;;;;;;10.00;5.00;;;;;;;24.30;38.01;101223.84;4887479;28;101371;-83
2021/09/30 07:12:54;;;;;;;5.70;4.90;;;;;;;25.65;35.81;101231.00;4879038;28;96935;-81
2021/09/30 07:15:19;;;;;;;6.93;5.28;;;;;;;26.79;33.70;101230.22;4896075;28;96837;-80
2021/09/30 07:17:45;;;;;;;7.55;5.38;;;;;;;27.68;32.77;101222.25;4878218;28;101857;-80
2021/09/30 07:20:11;;;;;;;7.72;4.90;;;;;;;28.37;31.74;101232.00;4863088;28;102015;-80
2021/09/30 07:22:37;;;;;;;5.60;4.97;;;;;;;28.98;30.87;101225.28;4876182;28;98237;-80
2021/09/30 07:25:03;;;;;;;5.60;5.20;;;;;;;29.11;30.11;101228.47;4881503;28;98227;-83
2021/09/30 07:27:29;;;;;;;10.13;5.95;;;;;;;30.11;29.18;101227.47;4878850;28;98011;-82
2021/09/30 07:29:54;;;;;;;6.05;5.55;;;;;;;30.79;28.50;101212.34;4878368;28;100719;-81
2021/09/30 07:32:20;;;;;;;5.60;4.93;;;;;;;31.08;27.34;101228.22;4894835;28;97192;-81
2021/09/30 07:34:45;;;;;;;7.28;5.90;;;;;;;31.90;25.77;101240.09;4878596;28;97117;-80
2021/09/30 07:37:12;;;;;;;5.25;4.95;;;;;;;32.19;25.29;101236.03;4873248;28;101056;-81
2021/09/30 07:39:37;;;;;;;5.75;5.13;;;;;;;32.53;24.71;101235.00;4893080;28;98790;-80
2021/09/30 07:42:03;;;;;;;6.50;5.82;;;;;;;32.75;24.19;101234.22;4859365;28;96899;-80
2021/09/30 07:44:32;;;;;;;6.45;5.95;;;;;;;32.98;24.57;101230.72;4865800;28;97070;-82
2021/09/30 07:46:58;;;;;;;6.78;5.57;;;;;;;32.94;23.85;101230.25;4886073;28;101571;-80
2021/09/30 07:49:24;;;;;;;6.68;6.13;;;;;;;33.21;24.31;101238.97;4884681;28;101279;-81
2021/09/30 07:51:50;;;;;;;7.00;6.50;;;;;;;33.49;23.79;101240.16;4868160;28;98269;-85
2021/09/30 07:54:15;;;;;;;6.85;6.25;;;;;;;33.78;23.60;101241.34;4871706;28;98017;-85
2021/09/30 07:56:41;;;;;;;6.57;5.90;;;;;;;34.31;22.88;101246.88;4870383;28;101568;-83
2021/09/30 07:59:06;;;;;;;5.97;5.30;;;;;;;34.65;22.07;101249.94;4890783;28;97960;-85
2021/09/30 08:01:32;;;;;;;6.53;5.90;;;;;;;34.40;23.05;101246.59;4877816;28;98133;-84
2021/09/30 08:03:59;;;;;;;6.43;6.03;;;;;;;33.41;23.65;101247.53;4878474;28;96857;-86
2021/09/30 08:06:26;;;;;;;6.13;5.70;;;;;;;33.20;23.94;101248.19;4854795;28;101936;-83
2021/09/30 08:08:52;;;;;;;5.63;5.18;;;;;;;32.47;24.53;101247.41;4861562;28;101346;-86
2021/09/30 08:11:19;;;;;;;5.95;5.45;;;;;;;31.88;24.88;101246.69;4879276;28;96819;-95
2021/09/30 08:13:47;;;;;;;6.90;5.32;;;;;;;32.12;24.84;101241.31;4863680;28;96949;-92
2021/09/30 08:16:18;;;;;;;6.55;5.88;;;;;;;31.44;24.83;101234.25;4854080;28;100887;-82
2021/09/30 08:18:44;;;;;;;7.97;4.85;;;;;;;32.06;25.31;101250.13;4891918;28;97868;-86
2021/09/30 08:21:13;;;;;;;5.30;4.95;;;;;;;31.93;24.48;101250.63;4871834;28;97310;-94
2021/09/30 08:23:51;;;;;;;7.75;5.47;;;;;;;31.79;24.64;101254.84;4865429;28;96969;-94
2021/09/30 08:26:37;;;;;;;5.90;5.40;;;;;;;31.25;25.52;101246.22;4890212;28;98774;-86
2021/09/30 08:29:05;;;;;;;6.63;5.63;;;;;;;31.31;25.51;101245.56;4879779;28;101085;-93
2021/09/30 08:31:31;;;;;;;5.95;5.40;;;;;;;31.59;25.13;101250.72;4878709;28;97500;-84
2021/09/30 08:34:03;;;;;;;5.60;5.10;;;;;;;31.83;24.86;101255.38;4874512;28;97542;-93
2021/09/30 08:36:29;;;;;;;6.28;5.78;;;;;;;31.67;24.83;101253.47;4870853;28;100012;-83
2021/09/30 08:38:55;;;;;;;7.25;6.65;;;;;;;31.59;25.07;101248.00;4885677;28;97461;-85
2021/09/30 08:41:21;;;;;;;6.07;5.68;;;;;;;31.87;24.32;101247.72;4875667;28;97047;-85
2021/09/30 08:43:48;;;;;;;5.93;5.53;;;;;;;32.32;23.76;101260.81;4887885;28;96892;-84
2021/09/30 08:46:14;;;;;;;5.50;5.10;;;;;;;32.13;23.72;101248.41;4857229;28;99701;-85
2021/09/30 08:48:40;;;;;;;6.00;5.40;;;;;;;31.98;24.77;101261.00;4868949;28;101654;-87
2021/09/30 08:51:07;;;;;;;6.20;5.78;;;;;;;32.33;24.38;101253.50;4868127;28;97376;-87
2021/09/30 08:53:33;;;;;;;5.50;5.20;;;;;;;32.84;23.55;101244.06;4879498;28;98024;-88
2021/09/30 08:56:04;;;;;;;6.20;5.68;;;;;;;33.02;23.14;101252.00;4868134;28;100353;-88
2021/09/30 08:58:30;;;;;;;6.28;5.57;;;;;;;33.68;22.11;101257.91;4896272;28;101316;-90
2021/09/30 09:01:00;;;;;;;5.45;4.90;;;;;;;33.90;22.41;101258.13;4867483;28;97547;-88
2021/09/30 09:03:38;;;;;;;6.60;6.00;;;;;;;33.97;22.01;101262.63;4863173;28;97523;-89
2021/09/30 09:06:04;;;;;;;6.47;5.88;;;;;;;33.99;21.89;101251.56;4860164;28;101899;-90
2021/09/30 09:08:30;;;;;;;6.90;6.30;;;;;;;34.51;21.47;101252.63;4872634;28;98931;-89
2021/09/30 09:10:57;;;;;;;6.88;6.18;;;;;;;34.39;21.48;101247.63;4864162;28;97101;-88
2021/09/30 09:13:23;;;;;;;6.63;6.03;;;;;;;34.34;22.51;101249.22;4873045;28;96918;-88
2021/09/30 09:15:54;;;;;;;6.10;5.70;;;;;;;34.02;22.22;101243.88;4862793;28;100430;-93
2021/09/30 09:18:29;;;;;;;6.10;5.60;;;;;;;34.21;21.82;101241.66;4896958;28;100911;-86
2021/09/30 09:21:04;;;;;;;6.80;6.30;;;;;;;34.17;22.11;101233.03;4875281;28;97248;-84
2021/09/30 09:23:31;;;;;;;8.13;7.43;;;;;;;34.57;21.87;101244.56;4877721;28;97010;-84
2021/09/30 09:26:13;;;;;;;7.35;6.65;;;;;;;34.73;20.99;101253.59;4873144;28;101847;-85
2021/09/30 09:29:03;;;;;;;7.18;6.57;;;;;;;34.70;21.28;101252.09;4874718;28;98338;-85
2021/09/30 09:31:35;;;;;;;6.20;5.80;;;;;;;35.17;21.03;101250.00;4881027;28;97533;-84
2021/09/30 09:34:21;;;;;;;6.60;6.20;;;;;;;35.05;20.88;101255.09;4889683;28;97194;-84
2021/09/30 09:36:50;;;;;;;6.95;6.45;;;;;;;35.12;20.43;101250.59;4904898;28;101285;-87
2021/09/30 09:39:42;;;;;;;6.60;6.20;;;;;;;35.46;20.52;101257.25;4871864;28;98804;-85
2021/09/30 09:42:11;;;;;;;6.53;6.03;;;;;;;35.32;20.86;101259.84;4899299;28;97060;-83
2021/09/30 09:44:52;;;;;;;7.00;6.50;;;;;;;35.00;20.88;101266.56;4873480;28;97436;-84
2021/09/30 09:47:23;;;;;;;8.57;5.80;;;;;;;34.07;21.88;101269.75;4894262;28;100087;-83
2021/09/30 09:50:22;;;;;;;7.65;6.88;;;;;;;33.78;21.70;101258.53;4874772;28;101169;-88
2021/09/30 09:52:58;;;;;;;6.97;6.20;;;;;;;34.11;21.60;101262.91;4883490;28;96916;-89
2021/09/30 09:55:33;;;;;;;7.20;6.55;;;;;;;34.10;21.96;101259.31;4877445;28;97287;-84
2021/09/30 09:58:00;;;;;;;6.78;6.18;;;;;;;34.41;21.61;101264.66;4890628;28;103315;-83
2021/09/30 10:00:26;;;;;;;6.95;6.35;;;;;;;33.86;22.00;101259.50;4909623;28;101242;-88
2021/09/30 10:02:52;;;;;;;6.38;5.88;;;;;;;33.18;21.84;101267.38;4872346;28;96863;-90
2021/09/30 10:05:19;;;;;;;6.38;5.88;;;;;;;32.31;22.89;101269.97;4874280;28;98022;-82
2021/09/30 10:07:47;;;;;;;6.43;5.95;;;;;;;31.97;23.40;101268.28;4857780;28;100553;-84
2021/09/30 10:10:15;;;;;;;6.65;6.03;;;;;;;31.72;23.40;101267.38;4868756;28;99930;-84
2021/09/30 10:12:42;;;;;;;7.57;6.88;;;;;;;31.57;23.74;101259.06;4850026;28;97220;-86
2021/09/30 10:15:08;;;;;;;8.43;6.50;;;;;;;30.90;24.24;101264.41;4875888;28;97462;-86
2021/09/30 10:17:34;;;;;;;7.10;6.47;;;;;;;30.55;24.65;101262.66;4891733;28;98284;-84
2021/09/30 10:20:00;;;;;;;6.63;5.28;;;;;;;30.20;25.41;101269.84;4862556;28;100851;-85
2021/09/30 10:22:26;;;;;;;6.30;5.75;;;;;;;28.33;26.63;101262.97;4876949;28;97128;-84
2021/09/30 10:24:53;;;;;;;6.90;6.28;;;;;;;27.21;27.98;101267.88;4874652;28;96792;-86
2021/09/30 10:27:19;;;;;;;6.20;5.70;;;;;;;26.41;29.43;101272.09;4860288;28;100538;-88
2021/09/30 10:29:47;;;;;;;6.18;5.68;;;;;;;27.50;28.93;101270.63;4861200;28;101430;-86
2021/09/30 10:32:16;;;;;;;6.57;6.00;;;;;;;27.47;28.90;101277.16;4893278;28;96918;-83
2021/09/30 10:34:45;;;;;;;6.33;5.47;;;;;;;27.72;28.69;101275.78;4880325;28;97738;-83
2021/09/30 10:37:26;;;;;;;7.95;6.05;;;;;;;27.91;28.96;101279.50;4886648;28;98543;-87
2021/09/30 10:40:15;;;;;;;6.20;5.63;;;;;;;27.80;29.09;101274.25;4893506;28;101623;-83
2021/09/30 10:43:00;;;;;;;6.30;5.80;;;;;;;27.44;30.06;101269.34;4883547;28;96847;-84
2021/09/30 10:45:38;;;;;;;6.70;6.00;;;;;;;26.98;29.60;101269.88;4868556;28;97007;-84
2021/09/30 10:48:05;;;;;;;8.00;5.95;;;;;;;26.36;30.11;101272.50;4853732;28;101875;-82
2021/09/30 10:50:47;;;;;;;7.03;5.80;;;;;;;26.30;30.49;101272.19;4892329;28;97580;-83
2021/09/30 10:53:13;;;;;;;6.85;6.35;;;;;;;25.94;30.89;101274.28;4877408;28;97213;-86
2021/09/30 10:55:38;;;;;;;6.30;5.80;;;;;;;25.95;30.90;101278.72;4868811;28;96872;-83
2021/09/30 10:58:24;;;;;;;6.22;5.30;;;;;;;25.87;30.60;101278.50;4876107;28;101278;-83
2021/09/30 11:00:57;;;;;;;6.85;6.07;;;;;;;25.36;30.80;101271.88;4868192;28;101285;-83
2021/09/30 11:03:24;;;;;;;6.97;6.18;;;;;;;24.44;32.48;101287.22;4888966;28;96912;-84
2021/09/30 11:06:15;;;;;;;5.80;5.35;;;;;;;24.27;32.52;101277.75;4890646;28;97474;-85
2021/09/30 11:08:43;;;;;;;6.00;5.50;;;;;;;24.32;30.93;101278.25;4872488;28;101642;-84
2021/09/30 11:11:10;;;;;;;6.00;5.60;;;;;;;24.28;31.19;101279.44;4877744;28;101656;-84
2021/09/30 11:13:35;;;;;;;6.90;5.20;;;;;;;24.06;32.15;101279.38;4875250;28;97387;-85
2021/09/30 11:16:14;;;;;;;9.07;5.82;;;;;;;23.83;32.53;101284.66;4887758;28;96861;-89
2021/09/30 11:18:51;;;;;;;5.80;5.25;;;;;;;23.39;32.23;101285.22;4862249;28;101525;-84
2021/09/30 11:21:41;;;;;;;5.93;5.43;;;;;;;23.25;32.42;101283.53;4889287;28;101346;-84
2021/09/30 11:24:09;;;;;;;6.70;5.30;;;;;;;23.37;33.15;101287.16;4864427;28;96784;-86
2021/09/30 11:26:54;;;;;;;5.75;5.30;;;;;;;23.08;32.46;101278.53;4888923;28;97312;-82
2021/09/30 11:29:24;;;;;;;5.57;4.80;;;;;;;22.86;33.46;101271.97;4885580;28;101513;-84
2021/09/30 11:31:59;;;;;;;5.55;5.05;;;;;;;22.47;33.35;101281.84;4905322;28;101488;-83
2021/09/30 11:34:37;;;;;;;5.50;5.00;;;;;;;22.27;33.28;101283.19;4886501;28;96797;-82
2021/09/30 11:37:14;;;;;;;5.82;5.18;;;;;;;22.41;34.17;101284.94;4897991;28;96905;-82
2021/09/30 11:39:41;;;;;;;7.32;5.43;;;;;;;22.43;33.87;101280.34;4874286;28;98668;-84
2021/09/30 11:42:07;;;;;;;9.27;5.57;;;;;;;22.48;33.71;101288.03;4881607;28;101463;-90
2021/09/30 11:44:32;;;;;;;6.80;5.10;;;;;;;22.28;34.76;101281.38;4878822;28;97188;-89
2021/09/30 11:46:59;;;;;;;12.85;5.30;;;;;;;22.01;34.62;101289.41;4880837;28;97128;-90
2021/09/30 11:49:26;;;;;;;4.88;4.50;;;;;;;22.09;34.68;101293.28;4852602;28;100250;-89
2021/09/30 11:51:54;;;;;;;6.65;4.80;;;;;;;22.20;34.23;101284.59;4874951;28;101559;-90
2021/09/30 11:54:22;;;;;;;8.20;4.93;;;;;;;22.07;34.27;101286.31;4874968;28;96900;-90
2021/09/30 11:56:50;;;;;;;5.30;4.82;;;;;;;22.22;34.28;101285.31;4859050;28;97032;-89
2021/09/30 11:59:18;;;;;;;5.38;4.85;;;;;;;22.05;33.58;101285.56;4875789;28;98172;-88
2021/09/30 12:01:46;;;;;;;5.63;5.22;;;;;;;22.11;33.68;101283.34;4878536;28;101413;-88
2021/09/30 12:04:29;;;;;;;5.80;5.40;;;;;;;21.95;34.23;101287.16;4878519;28;96792;-90
2021/09/30 12:06:55;;;;;;;6.57;5.30;;;;;;;21.95;34.18;101276.47;4874501;28;97065;-91
2021/09/30 12:09:20;;;;;;;6.68;5.03;;;;;;;22.00;34.73;101280.53;4892052;28;102211;-92
2021/09/30 12:11:52;;;;;;;6.43;5.10;;;;;;;21.95;34.71;101273.78;4860212;28;101099;-85
2021/09/30 12:14:18;;;;;;;6.65;5.07;;;;;;;21.93;34.81;101284.56;4874265;28;97005;-84
2021/09/30 12:17:00;;;;;;;9.45;6.20;;;;;;;21.94;35.21;101278.28;4873370;28;97675;-84
2021/09/30 12:19:36;;;;;;;6.25;5.85;;;;;;;22.07;34.88;101272.97;4871561;28;101867;-84
2021/09/30 12:22:05;;;;;;;5.63;5.15;;;;;;;22.06;34.64;101281.94;4903517;28;101613;-83
2021/09/30 12:24:31;;;;;;;10.63;6.03;;;;;;;21.93;35.39;101277.44;4871377;28;97252;-83
2021/09/30 12:26:57;;;;;;;5.38;4.90;;;;;;;21.97;35.05;101274.56;4891487;28;96976;-82
2021/09/30 12:29:23;;;;;;;9.63;5.28;;;;;;;21.77;35.10;101270.53;4868551;28;100490;-80
2021/09/30 12:32:05;;;;;;;7.95;5.90;;;;;;;21.66;35.69;101281.91;4856209;28;101427;-78
2021/09/30 12:34:31;;;;;;;8.90;6.40;;;;;;;21.44;36.44;101283.31;4884280;28;97402;-77
2021/09/30 12:36:57;;;;;;;8.85;5.43;;;;;;;21.50;36.22;101259.81;4864310;28;98044;-82
2021/09/30 12:39:30;;;;;;;8.07;5.43;;;;;;;21.59;36.73;101270.78;4879322;28;101272;-79
2021/09/30 12:42:10;;;;;;;7.93;5.03;;;;;;;21.46;36.15;101276.03;4872762;28;101611;-81
2021/09/30 12:44:41;;;;;;;10.43;5.17;;;;;;;21.44;37.00;101267.28;4881101;28;97432;-81
2021/09/30 12:47:07;;;;;;;10.35;4.95;;;;;;;21.41;36.46;101269.28;4876298;28;97289;-85
2021/09/30 12:49:33;;;;;;;6.00;5.40;;;;;;;21.36;34.05;101261.59;4866180;28;97903;-84
2021/09/30 12:52:18;;;;;;;9.23;5.13;;;;;;;21.15;34.82;101266.47;4859500;28;100537;-84
2021/09/30 12:54:45;;;;;;;10.00;5.10;;;;;;;21.00;35.01;101262.94;4856095;28;97336;-86
2021/09/30 12:57:11;;;;;;;8.02;5.32;;;;;;;21.08;35.00;101264.25;4858231;28;97766;-85
2021/09/30 12:59:37;;;;;;;5.22;4.55;;;;;;;21.09;35.68;101264.19;4887529;28;98098;-85
2021/09/30 13:02:03;;;;;;;5.38;4.88;;;;;;;21.15;35.19;101266.47;4851440;28;101230;-85
2021/09/30 13:04:29;;;;;;;5.53;5.03;;;;;;;21.16;35.91;101256.63;4873098;28;96939;-86
2021/09/30 13:07:03;;;;;;;6.35;4.93;;;;;;;21.21;36.25;101259.88;4891621;28;97441;-86
2021/09/30 13:09:34;;;;;;;6.80;4.75;;;;;;;21.09;35.97;101255.28;4858764;28;100967;-87
2021/09/30 13:12:04;;;;;;;5.80;5.10;;;;;;;21.12;35.75;101261.31;4860936;28;101904;-87
2021/09/30 13:14:33;;;;;;;5.00;4.60;;;;;;;20.99;35.80;101252.34;4870865;28;96886;-87
2021/09/30 13:17:02;;;;;;;5.63;5.10;;;;;;;20.91;35.73;101263.50;4855043;28;97066;-87
2021/09/30 13:19:53;;;;;;;5.68;5.18;;;;;;;20.67;36.57;101259.69;4873165;28;101662;-87
2021/09/30 13:22:35;;;;;;;5.80;5.22;;;;;;;20.62;36.46;101261.78;4871369;28;98394;-87
2021/09/30 13:25:07;;;;;;;13.15;5.75;;;;;;;20.55;36.97;101267.50;4870864;28;96907;-89
2021/09/30 13:27:35;;;;;;;20.20;6.85;;;;;;;20.46;37.69;101265.34;4874745;28;97577;-86
2021/09/30 13:30:15;;;;;;;8.05;5.30;;;;;;;20.38;38.15;101264.97;4889183;28;97311;-87
2021/09/30 13:32:41;;;;;;;11.50;6.00;;;;;;;20.33;37.88;101273.25;4890105;28;101078;-87
2021/09/30 13:35:09;;;;;;;10.32;5.13;;;;;;;20.36;38.81;101269.50;4901907;28;97263;-87
2021/09/30 13:37:34;;;;;;;7.80;5.70;;;;;;;20.37;38.98;101270.41;4871504;28;96971;-87
2021/09/30 13:40:01;;;;;;;7.45;5.45;;;;;;;20.37;38.09;101273.06;4875046;28;101345;-87
2021/09/30 13:42:29;;;;;;;6.28;5.40;;;;;;;20.48;38.49;101265.28;4861728;28;101145;-89
2021/09/30 13:44:56;;;;;;;6.20;5.30;;;;;;;20.46;38.22;101264.50;4865936;28;97340;-85
2021/09/30 13:47:22;;;;;;;7.15;5.10;;;;;;;20.60;37.76;101269.88;4877174;28;97066;-90
2021/09/30 13:49:48;;;;;;;7.20;5.00;;;;;;;20.65;38.01;101261.59;4873914;28;101390;-90
2021/09/30 13:52:14;;;;;;;7.45;5.20;;;;;;;20.61;38.61;101265.41;4874396;28;98927;-87
2021/09/30 13:54:40;;;;;;;8.63;5.70;;;;;;;20.42;37.08;101258.50;4875307;28;97099;-87
2021/09/30 13:57:06;;;;;;;6.85;6.25;;;;;;;20.24;37.01;101256.94;4872456;28;97290;-87
2021/09/30 13:59:32;;;;;;;6.50;5.90;;;;;;;20.27;36.88;101262.06;4876279;28;101653;-87
2021/09/30 14:01:57;;;;;;;8.73;5.18;;;;;;;20.14;38.21;101259.28;4872673;28;99905;-88
2021/09/30 14:04:23;;;;;;;5.88;5.20;;;;;;;20.12;38.49;101263.84;4865521;28;96812;-88
2021/09/30 14:06:49;;;;;;;5.50;5.03;;;;;;;20.16;41.38;101262.72;4861564;28;96996;-82
2021/09/30 14:09:15;;;;;;;5.82;5.22;;;;;;;19.98;41.40;101259.31;4873433;28;101542;-82
2021/09/30 14:11:41;;;;;;;5.82;5.32;;;;;;;19.82;42.01;101258.50;4876742;28;101691;-87
2021/09/30 14:14:10;;;;;;;6.80;5.80;;;;;;;19.76;41.11;101265.06;4859654;28;96735;-88
2021/09/30 14:16:36;;;;;;;9.43;5.18;;;;;;;19.62;40.55;101256.97;4860343;28;97500;-89
2021/09/30 14:19:01;;;;;;;6.78;5.10;;;;;;;19.79;39.85;101248.88;4888864;28;100288;-90
2021/09/30 14:21:27;;;;;;;5.13;4.03;;;;;;;19.87;38.89;101262.63;4878287;28;100984;-89
2021/09/30 14:23:53;;;;;;;5.40;5.00;;;;;;;19.88;38.85;101258.16;4853379;28;97328;-89
2021/09/30 14:26:18;;;;;;;5.75;5.20;;;;;;;19.87;38.70;101256.44;4878026;28;96868;-88
2021/09/30 14:28:44;;;;;;;8.55;5.35;;;;;;;19.80;38.65;101258.59;4881736;28;100651;-88